createdAt,value
2023-05-14T00:00:00.899Z,0
2023-05-14T00:16:03.292Z,0
2023-05-14T00:31:05.190Z,0
2023-05-14T00:46:02.276Z,0
2023-05-14T01:00:06.575Z,0
2023-05-14T01:16:01.423Z,0
2023-05-14T01:31:03.694Z,0
2023-05-14T01:46:00.770Z,0
2023-05-14T02:00:02.792Z,0
2023-05-14T02:16:05.091Z,0
2023-05-14T02:31:02.243Z,0
2023-05-14T02:46:04.412Z,0
2023-05-14T03:00:01.483Z,0
2023-05-14T03:16:03.808Z,0
2023-05-14T03:31:00.970Z,0
2023-05-14T03:46:03.256Z,0
2023-05-14T04:00:04.896Z,0
2023-05-14T04:16:02.330Z,0
2023-05-14T04:31:04.499Z,2
2023-05-14T04:46:01.363Z,11
2023-05-14T05:00:03.077Z,14
2023-05-14T05:16:00.678Z,15
2023-05-14T05:31:02.432Z,21
2023-05-14T05:46:04.645Z,37
2023-05-14T06:00:01.916Z,67
2023-05-14T06:16:04.313Z,45
2023-05-14T06:31:01.061Z,38
2023-05-14T06:46:03.168Z,28
2023-05-14T07:00:02.880Z,69
2023-05-14T07:16:02.696Z,70
2023-05-14T07:31:05.252Z,89
2023-05-14T07:46:02.027Z,62
2023-05-14T08:00:03.943Z,89
2023-05-14T08:16:01.182Z,133
2023-05-14T08:31:03.514Z,175
2023-05-14T08:46:00.651Z,177
2023-05-14T09:00:02.714Z,77
2023-05-14T09:16:05.037Z,73
2023-05-14T09:31:02.189Z,197
2023-05-14T09:46:04.268Z,287
2023-05-14T10:00:01.134Z,118
2023-05-14T10:16:03.647Z,79
2023-05-14T10:31:00.855Z,67
2023-05-14T10:46:02.810Z,62
2023-05-14T11:00:04.839Z,64
2023-05-14T11:16:08.735Z,64
2023-05-14T11:31:04.092Z,88
2023-05-14T11:46:01.423Z,173
2023-05-14T12:00:03.374Z,160
2023-05-14T12:16:00.668Z,110
2023-05-14T12:31:02.940Z,83
2023-05-14T12:46:04.812Z,72
2023-05-14T13:00:01.765Z,51
2023-05-14T13:16:04.163Z,62
2023-05-14T13:31:01.096Z,63
2023-05-14T13:46:09.961Z,67
2023-05-14T14:00:00.224Z,44
2023-05-14T14:16:02.671Z,71
2023-05-14T14:31:05.007Z,65
2023-05-14T14:46:01.920Z,63
2023-05-14T15:00:03.922Z,60
2023-05-14T15:16:01.296Z,49
2023-05-14T15:31:00.764Z,34
2023-05-14T15:46:00.411Z,51
2023-05-14T16:00:02.291Z,46
2023-05-14T16:16:04.686Z,54
2023-05-14T16:31:03.656Z,18
2023-05-14T16:46:03.977Z,24
2023-05-14T17:00:01.125Z,42
2023-05-14T17:16:03.390Z,27
2023-05-14T17:31:00.333Z,20
2023-05-14T17:46:02.323Z,18
2023-05-14T18:00:04.554Z,8
2023-05-14T18:16:01.950Z,5
2023-05-14T18:31:04.125Z,0
2023-05-14T18:46:01.222Z,0
2023-05-14T19:00:03.381Z,0
2023-05-14T19:16:00.679Z,0
2023-05-14T19:31:02.585Z,0
2023-05-14T19:46:06.246Z,0
2023-05-14T20:00:01.747Z,0
2023-05-14T20:16:04.224Z,0
2023-05-14T20:31:01.535Z,0
2023-05-14T20:46:03.935Z,0
2023-05-14T21:00:00.634Z,0
2023-05-14T21:16:02.959Z,0
2023-05-14T21:31:05.301Z,0
2023-05-14T21:46:02.111Z,0
2023-05-14T22:00:04.043Z,0
2023-05-14T22:16:12.226Z,0
2023-05-14T22:31:03.605Z,0
2023-05-14T22:46:00.876Z,0
2023-05-14T23:00:02.876Z,0
2023-05-14T23:16:00.191Z,0
2023-05-14T23:31:02.411Z,0
2023-05-14T23:46:04.753Z,0
